Main page
METAR-TAF:

METAR-TAF

Airports :

King Fahd International Airport

Dammam, Saudi Arabia

latitude: 26-28N, longitude: 049-47E, elevation: 22 m

Current weather observation

The report was made 49 minutes ago, at 00:00 UTC
Calm wind
Temperature 16°C
Humidity 88%
Pressure 1015 hPa
Visibility: 7000 m

METAR: OEDF 160000Z 00000KT 7000 NSC 16/14 Q1015 TEMPO 6000

Time: 03:49 (00:49 UTC)

Forecast

The report was made 4 hours and 49 minutes ago, at 20:00 UTC
Forecast valid from 16 at 00 UTC to 17 at 06 UTC
Wind 13 kt from the South/Southeast
Visibility: 7000 m
Temporary
from 16 at 00 UTC to 16 at 14 UTC
Visibility: 4000 m
haze
Temporary
from 16 at 09 UTC to 16 at 14 UTC
Visibility: 4000 m
Blowing dust
Becoming
from 17 at 03 UTC to 17 at 05 UTC
Wind 15 kt from the North/Northwest with gusts up to 30 kt
Visibility: 2000 m
Blowing dust

TAF: OEDF 152000Z 1600/1706 15013KT 7000 NSC TEMPO 1600/1614 4000 HZ TEMPO 1609/1614 4000 BLDU BECMG 1703/1705 34015G30KT 2000 BLDU

Weather observations and forecasts of more than 4000 airports (METAR and TAF reports).

The available stations are represented by yellow and red dots on the map.

Hover mouse over dot to see the name of the station.

Then click to see weather observations and forecasts.

To change the map : click on the green buttons with a black cross to zoom in, on the green button with a dash to zoom out, or on the green arrows for adjacent maps.


METAR-TAF: